Terminal Aerodrome Forecast
Issued by NWS Wilmington, NC

Home | Current Version | Previous Version | Text Only | Print | Product List | Glossary On
Versions: 1 2 3 4 5 6 7 8 9 10 11 12 13 14 15 16 17 18 19 20
000
FTUS42 KILM 311722
TAFMYR
TAF
KMYR 311722Z 3118/0118 01009KT P6SM -SHRA BKN015 BKN030 OVC100
      TEMPO 3118/3122 VRB08KT 4SM TSRA BKN015CB
     FM312200 02008KT P6SM SHRA VCTS BKN025CB BKN100
     FM010000 03003KT P6SM VCSH SCT040 BKN100
     FM010800 35003KT P6SM BKN003
     FM011330 34009KT P6SM SCT020 BKN100=

USA.gov is the U.S. government's official web portal to all federal, state and local government web resources and services.